sensor_id;sensor_type;location;lat;lon;timestamp;temperature;humidity
6293;DHT22;3179;54.350;10.102;2023-02-15T00:00:53;5.30;99.90
6293;DHT22;3179;54.350;10.102;2023-02-15T00:03:22;5.20;99.90
6293;DHT22;3179;54.350;10.102;2023-02-15T00:05:49;5.20;99.90
6293;DHT22;3179;54.350;10.102;2023-02-15T00:08:16;5.20;99.90
6293;DHT22;3179;54.350;10.102;2023-02-15T00:10:43;5.20;99.90
6293;DHT22;3179;54.350;10.102;2023-02-15T00:13:09;5.20;99.90
6293;DHT22;3179;54.350;10.102;2023-02-15T00:15:36;5.20;99.90
6293;DHT22;3179;54.350;10.102;2023-02-15T00:18:03;5.10;99.90
6293;DHT22;3179;54.350;10.102;2023-02-15T00:20:31;5.10;99.90
6293;DHT22;3179;54.350;10.102;2023-02-15T00:22:58;5.10;99.90
6293;DHT22;3179;54.350;10.102;2023-02-15T00:25:25;5.10;99.90
6293;DHT22;3179;54.350;10.102;2023-02-15T00:27:54;5.00;99.90
6293;DHT22;3179;54.350;10.102;2023-02-15T00:30:21;5.00;99.90
6293;DHT22;3179;54.350;10.102;2023-02-15T00:32:47;5.00;99.90
6293;DHT22;3179;54.350;10.102;2023-02-15T00:35:14;5.10;99.90
6293;DHT22;3179;54.350;10.102;2023-02-15T00:37:42;5.10;99.90
6293;DHT22;3179;54.350;10.102;2023-02-15T00:40:09;5.00;99.90
6293;DHT22;3179;54.350;10.102;2023-02-15T00:42:36;5.00;99.90
6293;DHT22;3179;54.350;10.102;2023-02-15T00:45:03;5.00;99.90
6293;DHT22;3179;54.350;10.102;2023-02-15T00:47:30;5.00;99.90
6293;DHT22;3179;54.350;10.102;2023-02-15T00:49:57;5.00;99.90
6293;DHT22;3179;54.350;10.102;2023-02-15T00:52:24;5.00;99.90
6293;DHT22;3179;54.350;10.102;2023-02-15T00:54:52;5.00;99.90
6293;DHT22;3179;54.350;10.102;2023-02-15T00:57:19;4.90;99.90
6293;DHT22;3179;54.350;10.102;2023-02-15T00:59:46;4.90;99.90
6293;DHT22;3179;54.350;10.102;2023-02-15T01:02:13;4.90;99.90
6293;DHT22;3179;54.350;10.102;2023-02-15T01:04:40;5.00;99.90
6293;DHT22;3179;54.350;10.102;2023-02-15T01:07:06;4.90;99.90
6293;DHT22;3179;54.350;10.102;2023-02-15T01:09:33;4.90;99.90
6293;DHT22;3179;54.350;10.102;2023-02-15T01:12:01;4.90;99.90
6293;DHT22;3179;54.350;10.102;2023-02-15T01:14:28;4.90;99.90
6293;DHT22;3179;54.350;10.102;2023-02-15T01:16:55;4.90;99.90
6293;DHT22;3179;54.350;10.102;2023-02-15T01:19:22;4.90;99.90
6293;DHT22;3179;54.350;10.102;2023-02-15T01:21:49;4.90;99.90
6293;DHT22;3179;54.350;10.102;2023-02-15T01:24:16;4.90;99.90
6293;DHT22;3179;54.350;10.102;2023-02-15T01:26:42;4.90;99.90
6293;DHT22;3179;54.350;10.102;2023-02-15T01:29:10;4.80;99.90
6293;DHT22;3179;54.350;10.102;2023-02-15T01:31:37;4.90;99.90
6293;DHT22;3179;54.350;10.102;2023-02-15T01:34:04;4.80;99.90
6293;DHT22;3179;54.350;10.102;2023-02-15T01:36:33;4.80;99.90
6293;DHT22;3179;54.350;10.102;2023-02-15T01:39:00;4.80;99.90
6293;DHT22;3179;54.350;10.102;2023-02-15T01:41:27;4.80;99.90
6293;DHT22;3179;54.350;10.102;2023-02-15T01:43:56;4.80;99.90
6293;DHT22;3179;54.350;10.102;2023-02-15T01:46:28;4.80;99.90
6293;DHT22;3179;54.350;10.102;2023-02-15T01:49:02;4.80;99.90
6293;DHT22;3179;54.350;10.102;2023-02-15T01:51:31;4.80;99.90
6293;DHT22;3179;54.350;10.102;2023-02-15T01:54:02;4.70;99.90
6293;DHT22;3179;54.350;10.102;2023-02-15T01:56:31;4.70;99.90
6293;DHT22;3179;54.350;10.102;2023-02-15T01:59:03;4.70;99.90
6293;DHT22;3179;54.350;10.102;2023-02-15T02:01:33;4.70;99.90
6293;DHT22;3179;54.350;10.102;2023-02-15T02:04:06;4.70;99.90
6293;DHT22;3179;54.350;10.102;2023-02-15T02:06:36;4.70;99.90
6293;DHT22;3179;54.350;10.102;2023-02-15T02:09:05;4.70;99.90
6293;DHT22;3179;54.350;10.102;2023-02-15T02:11:32;4.70;99.90
6293;DHT22;3179;54.350;10.102;2023-02-15T02:13:59;4.70;99.90
6293;DHT22;3179;54.350;10.102;2023-02-15T02:16:30;4.70;99.90
6293;DHT22;3179;54.350;10.102;2023-02-15T02:19:18;4.70;99.90
6293;DHT22;3179;54.350;10.102;2023-02-15T02:22:28;4.80;99.90
6293;DHT22;3179;54.350;10.102;2023-02-15T02:25:39;4.80;99.90
6293;DHT22;3179;54.350;10.102;2023-02-15T02:28:35;4.80;99.90
6293;DHT22;3179;54.350;10.102;2023-02-15T02:31:24;4.80;99.90
6293;DHT22;3179;54.350;10.102;2023-02-15T02:34:01;4.80;99.90
6293;DHT22;3179;54.350;10.102;2023-02-15T02:36:36;4.80;99.90
6293;DHT22;3179;54.350;10.102;2023-02-15T02:39:16;4.80;99.90
6293;DHT22;3179;54.350;10.102;2023-02-15T02:41:52;4.90;99.90
6293;DHT22;3179;54.350;10.102;2023-02-15T02:44:24;4.90;99.90
6293;DHT22;3179;54.350;10.102;2023-02-15T02:46:57;4.90;99.90
6293;DHT22;3179;54.350;10.102;2023-02-15T02:49:34;4.90;99.90
6293;DHT22;3179;54.350;10.102;2023-02-15T02:52:03;5.00;99.90
6293;DHT22;3179;54.350;10.102;2023-02-15T02:54:32;5.00;99.90
6293;DHT22;3179;54.350;10.102;2023-02-15T02:57:02;5.00;99.90
6293;DHT22;3179;54.350;10.102;2023-02-15T02:59:33;5.10;99.90
6293;DHT22;3179;54.350;10.102;2023-02-15T03:02:05;5.10;99.90
6293;DHT22;3179;54.350;10.102;2023-02-15T03:04:40;5.10;99.90
6293;DHT22;3179;54.350;10.102;2023-02-15T03:07:11;5.10;99.90
6293;DHT22;3179;54.350;10.102;2023-02-15T03:09:41;5.10;99.90
6293;DHT22;3179;54.350;10.102;2023-02-15T03:12:10;5.10;99.90
6293;DHT22;3179;54.350;10.102;2023-02-15T03:14:39;5.10;99.90
6293;DHT22;3179;54.350;10.102;2023-02-15T03:17:08;5.10;99.90
6293;DHT22;3179;54.350;10.102;2023-02-15T03:19:36;5.10;99.90
6293;DHT22;3179;54.350;10.102;2023-02-15T03:22:07;5.10;99.90
6293;DHT22;3179;54.350;10.102;2023-02-15T03:24:37;5.10;99.90
6293;DHT22;3179;54.350;10.102;2023-02-15T03:27:11;5.10;99.90
6293;DHT22;3179;54.350;10.102;2023-02-15T03:29:39;5.10;99.90
6293;DHT22;3179;54.350;10.102;2023-02-15T03:32:10;5.10;99.90
6293;DHT22;3179;54.350;10.102;2023-02-15T03:34:37;5.10;99.90
6293;DHT22;3179;54.350;10.102;2023-02-15T03:37:10;5.10;99.90
6293;DHT22;3179;54.350;10.102;2023-02-15T03:39:42;5.10;99.90
6293;DHT22;3179;54.350;10.102;2023-02-15T03:42:15;5.10;99.90
6293;DHT22;3179;54.350;10.102;2023-02-15T03:44:50;5.10;99.90
6293;DHT22;3179;54.350;10.102;2023-02-15T03:47:20;5.10;99.90
6293;DHT22;3179;54.350;10.102;2023-02-15T03:49:53;5.10;99.90
6293;DHT22;3179;54.350;10.102;2023-02-15T03:52:25;5.10;99.90
6293;DHT22;3179;54.350;10.102;2023-02-15T03:54:53;5.10;99.90
6293;DHT22;3179;54.350;10.102;2023-02-15T03:57:21;5.10;99.90
6293;DHT22;3179;54.350;10.102;2023-02-15T04:00:12;5.10;99.90
6293;DHT22;3179;54.350;10.102;2023-02-15T04:03:11;5.10;99.90
6293;DHT22;3179;54.350;10.102;2023-02-15T04:05:39;5.10;99.90
6293;DHT22;3179;54.350;10.102;2023-02-15T04:08:08;5.10;99.90
6293;DHT22;3179;54.350;10.102;2023-02-15T04:10:35;5.00;99.90
6293;DHT22;3179;54.350;10.102;2023-02-15T04:13:21;5.10;99.90
6293;DHT22;3179;54.350;10.102;2023-02-15T04:15:48;5.10;99.90
6293;DHT22;3179;54.350;10.102;2023-02-15T04:18:29;5.10;99.90
6293;DHT22;3179;54.350;10.102;2023-02-15T04:21:14;5.00;99.90
6293;DHT22;3179;54.350;10.102;2023-02-15T04:24:00;5.00;99.90
6293;DHT22;3179;54.350;10.102;2023-02-15T04:26:44;5.00;99.90
6293;DHT22;3179;54.350;10.102;2023-02-15T04:29:13;5.00;99.90
6293;DHT22;3179;54.350;10.102;2023-02-15T04:31:40;5.00;99.90
6293;DHT22;3179;54.350;10.102;2023-02-15T04:34:08;5.00;99.90
6293;DHT22;3179;54.350;10.102;2023-02-15T04:36:35;5.00;99.90
6293;DHT22;3179;54.350;10.102;2023-02-15T04:39:04;5.00;99.90
6293;DHT22;3179;54.350;10.102;2023-02-15T04:41:31;4.90;99.90
6293;DHT22;3179;54.350;10.102;2023-02-15T04:43:58;5.00;99.90
6293;DHT22;3179;54.350;10.102;2023-02-15T04:46:24;4.90;99.90
6293;DHT22;3179;54.350;10.102;2023-02-15T04:48:51;4.90;99.90
6293;DHT22;3179;54.350;10.102;2023-02-15T04:51:18;4.90;99.90
6293;DHT22;3179;54.350;10.102;2023-02-15T04:53:45;4.90;99.90
6293;DHT22;3179;54.350;10.102;2023-02-15T04:56:13;4.90;99.90
6293;DHT22;3179;54.350;10.102;2023-02-15T04:58:40;4.90;99.90
6293;DHT22;3179;54.350;10.102;2023-02-15T05:01:07;4.90;99.90
6293;DHT22;3179;54.350;10.102;2023-02-15T05:03:34;4.90;99.90
6293;DHT22;3179;54.350;10.102;2023-02-15T05:06:01;4.90;99.90
6293;DHT22;3179;54.350;10.102;2023-02-15T05:08:28;4.90;99.90
6293;DHT22;3179;54.350;10.102;2023-02-15T05:10:55;4.80;99.90
6293;DHT22;3179;54.350;10.102;2023-02-15T05:13:24;4.90;99.90
6293;DHT22;3179;54.350;10.102;2023-02-15T05:15:52;4.90;99.90
6293;DHT22;3179;54.350;10.102;2023-02-15T05:18:20;4.80;99.90
6293;DHT22;3179;54.350;10.102;2023-02-15T05:20:47;4.80;99.90
6293;DHT22;3179;54.350;10.102;2023-02-15T05:23:14;4.80;99.90
6293;DHT22;3179;54.350;10.102;2023-02-15T05:25:41;4.80;99.90
6293;DHT22;3179;54.350;10.102;2023-02-15T05:28:31;4.70;99.90
6293;DHT22;3179;54.350;10.102;2023-02-15T05:31:03;4.70;99.90
6293;DHT22;3179;54.350;10.102;2023-02-15T05:33:30;4.70;99.90
6293;DHT22;3179;54.350;10.102;2023-02-15T05:35:57;4.70;99.90
6293;DHT22;3179;54.350;10.102;2023-02-15T05:38:24;4.70;99.90
6293;DHT22;3179;54.350;10.102;2023-02-15T05:40:51;4.70;99.90
6293;DHT22;3179;54.350;10.102;2023-02-15T05:43:19;4.70;99.90
6293;DHT22;3179;54.350;10.102;2023-02-15T05:45:47;4.70;99.90
6293;DHT22;3179;54.350;10.102;2023-02-15T05:48:14;4.70;99.90
6293;DHT22;3179;54.350;10.102;2023-02-15T05:50:40;4.70;99.90
6293;DHT22;3179;54.350;10.102;2023-02-15T05:53:07;4.70;99.90
6293;DHT22;3179;54.350;10.102;2023-02-15T05:55:37;4.70;99.90
6293;DHT22;3179;54.350;10.102;2023-02-15T05:58:04;4.70;99.90
6293;DHT22;3179;54.350;10.102;2023-02-15T06:00:31;4.70;99.90
6293;DHT22;3179;54.350;10.102;2023-02-15T06:02:59;4.70;99.90
6293;DHT22;3179;54.350;10.102;2023-02-15T06:05:25;4.60;99.90
6293;DHT22;3179;54.350;10.102;2023-02-15T06:07:52;4.70;99.90
6293;DHT22;3179;54.350;10.102;2023-02-15T06:10:19;4.70;99.90
6293;DHT22;3179;54.350;10.102;2023-02-15T06:12:46;4.70;99.90
6293;DHT22;3179;54.350;10.102;2023-02-15T06:15:13;4.70;99.90
6293;DHT22;3179;54.350;10.102;2023-02-15T06:17:41;4.70;99.90
6293;DHT22;3179;54.350;10.102;2023-02-15T06:20:10;4.70;99.90
6293;DHT22;3179;54.350;10.102;2023-02-15T06:22:36;4.70;99.90
6293;DHT22;3179;54.350;10.102;2023-02-15T06:25:03;4.70;99.90
6293;DHT22;3179;54.350;10.102;2023-02-15T06:27:31;4.70;99.90
6293;DHT22;3179;54.350;10.102;2023-02-15T06:29:57;4.70;99.90
6293;DHT22;3179;54.350;10.102;2023-02-15T06:32:24;4.70;99.90
6293;DHT22;3179;54.350;10.102;2023-02-15T06:34:51;4.70;99.90
6293;DHT22;3179;54.350;10.102;2023-02-15T06:37:19;4.70;99.90
6293;DHT22;3179;54.350;10.102;2023-02-15T06:39:45;4.70;99.90
6293;DHT22;3179;54.350;10.102;2023-02-15T06:42:12;4.70;99.90
6293;DHT22;3179;54.350;10.102;2023-02-15T06:44:39;4.70;99.90
6293;DHT22;3179;54.350;10.102;2023-02-15T06:47:06;4.70;99.90
6293;DHT22;3179;54.350;10.102;2023-02-15T06:49:32;4.70;99.90
6293;DHT22;3179;54.350;10.102;2023-02-15T06:51:59;4.70;99.90
6293;DHT22;3179;54.350;10.102;2023-02-15T06:54:27;4.70;99.90
6293;DHT22;3179;54.350;10.102;2023-02-15T06:56:54;4.70;99.90
6293;DHT22;3179;54.350;10.102;2023-02-15T06:59:21;4.70;99.90
6293;DHT22;3179;54.350;10.102;2023-02-15T07:01:48;4.70;99.90
6293;DHT22;3179;54.350;10.102;2023-02-15T07:04:15;4.70;99.90
6293;DHT22;3179;54.350;10.102;2023-02-15T07:06:42;4.70;99.90
6293;DHT22;3179;54.350;10.102;2023-02-15T07:09:09;4.70;99.90
6293;DHT22;3179;54.350;10.102;2023-02-15T07:11:37;4.70;99.90
6293;DHT22;3179;54.350;10.102;2023-02-15T07:14:21;4.70;99.90
6293;DHT22;3179;54.350;10.102;2023-02-15T07:16:48;4.70;99.90
6293;DHT22;3179;54.350;10.102;2023-02-15T07:19:16;4.70;99.90
6293;DHT22;3179;54.350;10.102;2023-02-15T07:21:42;4.70;99.90
6293;DHT22;3179;54.350;10.102;2023-02-15T07:24:10;4.70;99.90
6293;DHT22;3179;54.350;10.102;2023-02-15T07:26:39;4.70;99.90
6293;DHT22;3179;54.350;10.102;2023-02-15T07:29:05;4.70;99.90
6293;DHT22;3179;54.350;10.102;2023-02-15T07:31:32;4.70;99.90
6293;DHT22;3179;54.350;10.102;2023-02-15T07:33:59;4.70;99.90
6293;DHT22;3179;54.350;10.102;2023-02-15T07:36:26;4.70;99.90
6293;DHT22;3179;54.350;10.102;2023-02-15T07:38:52;4.70;99.90
6293;DHT22;3179;54.350;10.102;2023-02-15T07:41:19;4.70;99.90
6293;DHT22;3179;54.350;10.102;2023-02-15T07:43:47;4.70;99.90
6293;DHT22;3179;54.350;10.102;2023-02-15T07:46:16;4.70;99.90
6293;DHT22;3179;54.350;10.102;2023-02-15T07:48:44;4.70;99.90
6293;DHT22;3179;54.350;10.102;2023-02-15T07:51:12;4.70;99.90
6293;DHT22;3179;54.350;10.102;2023-02-15T07:53:40;4.80;99.90
6293;DHT22;3179;54.350;10.102;2023-02-15T07:56:09;4.70;99.90
6293;DHT22;3179;54.350;10.102;2023-02-15T07:58:37;4.70;99.90
6293;DHT22;3179;54.350;10.102;2023-02-15T08:01:23;4.80;99.90
6293;DHT22;3179;54.350;10.102;2023-02-15T08:03:50;4.80;99.90
6293;DHT22;3179;54.350;10.102;2023-02-15T08:06:17;4.80;99.90
6293;DHT22;3179;54.350;10.102;2023-02-15T08:08:44;4.80;99.90
6293;DHT22;3179;54.350;10.102;2023-02-15T08:11:16;4.80;99.90
6293;DHT22;3179;54.350;10.102;2023-02-15T08:13:55;4.80;99.90
6293;DHT22;3179;54.350;10.102;2023-02-15T08:16:27;4.80;99.90
6293;DHT22;3179;54.350;10.102;2023-02-15T08:18:55;4.80;99.90
6293;DHT22;3179;54.350;10.102;2023-02-15T08:21:23;4.90;99.90
6293;DHT22;3179;54.350;10.102;2023-02-15T08:23:51;4.80;99.90
6293;DHT22;3179;54.350;10.102;2023-02-15T08:26:18;4.90;99.90
6293;DHT22;3179;54.350;10.102;2023-02-15T08:28:45;4.90;99.90
6293;DHT22;3179;54.350;10.102;2023-02-15T08:31:13;4.90;99.90
6293;DHT22;3179;54.350;10.102;2023-02-15T08:33:42;4.90;99.90
6293;DHT22;3179;54.350;10.102;2023-02-15T08:36:11;4.90;99.90
6293;DHT22;3179;54.350;10.102;2023-02-15T08:38:39;4.90;99.90
6293;DHT22;3179;54.350;10.102;2023-02-15T08:41:13;4.90;99.90
6293;DHT22;3179;54.350;10.102;2023-02-15T08:43:41;4.90;99.90
6293;DHT22;3179;54.350;10.102;2023-02-15T08:46:11;5.00;99.90
6293;DHT22;3179;54.350;10.102;2023-02-15T08:48:40;5.00;99.90
6293;DHT22;3179;54.350;10.102;2023-02-15T08:51:09;5.00;99.90
6293;DHT22;3179;54.350;10.102;2023-02-15T08:53:38;5.00;99.90
6293;DHT22;3179;54.350;10.102;2023-02-15T08:56:05;5.00;99.90
6293;DHT22;3179;54.350;10.102;2023-02-15T08:58:32;5.00;99.90
6293;DHT22;3179;54.350;10.102;2023-02-15T09:00:59;5.10;99.90
6293;DHT22;3179;54.350;10.102;2023-02-15T09:03:29;5.10;99.90
6293;DHT22;3179;54.350;10.102;2023-02-15T09:06:00;5.10;99.90
6293;DHT22;3179;54.350;10.102;2023-02-15T09:08:28;5.10;99.90
6293;DHT22;3179;54.350;10.102;2023-02-15T09:11:05;5.20;99.90
6293;DHT22;3179;54.350;10.102;2023-02-15T09:13:32;5.10;99.90
6293;DHT22;3179;54.350;10.102;2023-02-15T09:16:00;5.10;99.90
6293;DHT22;3179;54.350;10.102;2023-02-15T09:18:27;5.10;99.90
6293;DHT22;3179;54.350;10.102;2023-02-15T09:20:55;5.20;99.90
6293;DHT22;3179;54.350;10.102;2023-02-15T09:23:23;5.20;99.90
6293;DHT22;3179;54.350;10.102;2023-02-15T09:25:50;5.20;99.90
6293;DHT22;3179;54.350;10.102;2023-02-15T09:28:17;5.20;99.90
6293;DHT22;3179;54.350;10.102;2023-02-15T09:30:43;5.20;99.90
6293;DHT22;3179;54.350;10.102;2023-02-15T09:33:10;5.10;99.90
6293;DHT22;3179;54.350;10.102;2023-02-15T09:35:37;5.10;99.90
6293;DHT22;3179;54.350;10.102;2023-02-15T09:38:04;5.20;99.90
6293;DHT22;3179;54.350;10.102;2023-02-15T09:40:38;5.10;99.90
6293;DHT22;3179;54.350;10.102;2023-02-15T09:43:18;5.20;99.90
6293;DHT22;3179;54.350;10.102;2023-02-15T09:46:11;5.20;99.90
6293;DHT22;3179;54.350;10.102;2023-02-15T09:48:45;5.20;99.90
6293;DHT22;3179;54.350;10.102;2023-02-15T09:51:31;5.20;99.90
6293;DHT22;3179;54.350;10.102;2023-02-15T09:54:13;5.30;99.90
6293;DHT22;3179;54.350;10.102;2023-02-15T09:56:47;5.30;99.90
6293;DHT22;3179;54.350;10.102;2023-02-15T09:59:21;5.30;99.90
6293;DHT22;3179;54.350;10.102;2023-02-15T10:01:59;5.30;99.90
6293;DHT22;3179;54.350;10.102;2023-02-15T10:04:44;5.30;99.90
6293;DHT22;3179;54.350;10.102;2023-02-15T10:07:22;5.40;99.90
6293;DHT22;3179;54.350;10.102;2023-02-15T10:10:02;5.40;99.90
6293;DHT22;3179;54.350;10.102;2023-02-15T10:12:47;5.40;99.90
6293;DHT22;3179;54.350;10.102;2023-02-15T10:15:23;5.40;99.90
6293;DHT22;3179;54.350;10.102;2023-02-15T10:18:05;5.50;99.90
6293;DHT22;3179;54.350;10.102;2023-02-15T10:20:41;5.40;99.90
6293;DHT22;3179;54.350;10.102;2023-02-15T10:23:30;5.50;99.90
6293;DHT22;3179;54.350;10.102;2023-02-15T10:26:12;5.50;99.90
6293;DHT22;3179;54.350;10.102;2023-02-15T10:28:48;5.50;99.90
6293;DHT22;3179;54.350;10.102;2023-02-15T10:31:23;5.60;99.90
6293;DHT22;3179;54.350;10.102;2023-02-15T10:34:04;5.60;99.90
6293;DHT22;3179;54.350;10.102;2023-02-15T10:36:53;5.60;99.90
6293;DHT22;3179;54.350;10.102;2023-02-15T10:39:30;5.60;99.90
6293;DHT22;3179;54.350;10.102;2023-02-15T10:42:06;5.70;99.90
6293;DHT22;3179;54.350;10.102;2023-02-15T10:44:49;5.70;99.90
6293;DHT22;3179;54.350;10.102;2023-02-15T10:47:37;5.70;99.90
6293;DHT22;3179;54.350;10.102;2023-02-15T10:50:29;5.80;99.90
6293;DHT22;3179;54.350;10.102;2023-02-15T10:53:12;5.80;99.90
6293;DHT22;3179;54.350;10.102;2023-02-15T10:55:48;5.90;99.90
6293;DHT22;3179;54.350;10.102;2023-02-15T10:58:23;5.90;99.90
6293;DHT22;3179;54.350;10.102;2023-02-15T11:01:03;5.90;99.90
6293;DHT22;3179;54.350;10.102;2023-02-15T11:03:50;5.90;99.90
6293;DHT22;3179;54.350;10.102;2023-02-15T11:06:23;6.00;99.90
6293;DHT22;3179;54.350;10.102;2023-02-15T11:08:55;6.00;99.90
6293;DHT22;3179;54.350;10.102;2023-02-15T11:11:28;6.00;99.90
6293;DHT22;3179;54.350;10.102;2023-02-15T11:14:00;6.00;99.90
6293;DHT22;3179;54.350;10.102;2023-02-15T11:16:31;6.00;99.90
6293;DHT22;3179;54.350;10.102;2023-02-15T11:19:03;6.10;99.90
6293;DHT22;3179;54.350;10.102;2023-02-15T11:21:36;6.10;99.90
6293;DHT22;3179;54.350;10.102;2023-02-15T11:24:10;6.20;99.90
6293;DHT22;3179;54.350;10.102;2023-02-15T11:26:41;6.20;99.90
6293;DHT22;3179;54.350;10.102;2023-02-15T11:29:13;6.20;99.90
6293;DHT22;3179;54.350;10.102;2023-02-15T11:31:45;6.20;99.90
6293;DHT22;3179;54.350;10.102;2023-02-15T11:34:17;6.20;99.90
6293;DHT22;3179;54.350;10.102;2023-02-15T11:36:47;6.30;99.90
6293;DHT22;3179;54.350;10.102;2023-02-15T11:39:18;6.30;99.90
6293;DHT22;3179;54.350;10.102;2023-02-15T11:41:47;6.30;99.90
6293;DHT22;3179;54.350;10.102;2023-02-15T11:44:21;6.30;99.90
6293;DHT22;3179;54.350;10.102;2023-02-15T11:46:52;6.30;99.90
6293;DHT22;3179;54.350;10.102;2023-02-15T11:49:23;6.30;99.90
6293;DHT22;3179;54.350;10.102;2023-02-15T11:51:52;6.30;99.90
6293;DHT22;3179;54.350;10.102;2023-02-15T11:54:27;6.40;99.90
6293;DHT22;3179;54.350;10.102;2023-02-15T11:56:55;6.40;99.90
6293;DHT22;3179;54.350;10.102;2023-02-15T11:59:29;6.40;99.90
6293;DHT22;3179;54.350;10.102;2023-02-15T12:01:59;6.40;99.90
6293;DHT22;3179;54.350;10.102;2023-02-15T12:04:30;6.40;99.90
6293;DHT22;3179;54.350;10.102;2023-02-15T12:07:01;6.40;99.90
6293;DHT22;3179;54.350;10.102;2023-02-15T12:09:33;6.40;99.90
6293;DHT22;3179;54.350;10.102;2023-02-15T12:12:20;6.50;99.90
6293;DHT22;3179;54.350;10.102;2023-02-15T12:14:50;6.50;99.90
6293;DHT22;3179;54.350;10.102;2023-02-15T12:17:20;6.50;99.90
6293;DHT22;3179;54.350;10.102;2023-02-15T12:19:48;6.50;99.90
6293;DHT22;3179;54.350;10.102;2023-02-15T12:22:20;6.50;99.90
6293;DHT22;3179;54.350;10.102;2023-02-15T12:24:51;6.60;99.90
6293;DHT22;3179;54.350;10.102;2023-02-15T12:27:21;6.60;99.90
6293;DHT22;3179;54.350;10.102;2023-02-15T12:29:50;6.60;99.90
6293;DHT22;3179;54.350;10.102;2023-02-15T12:32:22;6.60;99.90
6293;DHT22;3179;54.350;10.102;2023-02-15T12:34:51;6.60;99.90
6293;DHT22;3179;54.350;10.102;2023-02-15T12:37:23;6.60;99.90
6293;DHT22;3179;54.350;10.102;2023-02-15T12:39:54;6.70;99.90
6293;DHT22;3179;54.350;10.102;2023-02-15T12:42:22;6.70;99.90
6293;DHT22;3179;54.350;10.102;2023-02-15T12:44:55;6.70;99.90
6293;DHT22;3179;54.350;10.102;2023-02-15T12:47:24;6.70;99.90
6293;DHT22;3179;54.350;10.102;2023-02-15T12:50:14;6.80;99.90
6293;DHT22;3179;54.350;10.102;2023-02-15T12:52:46;6.80;99.90
6293;DHT22;3179;54.350;10.102;2023-02-15T12:55:23;6.80;99.90
6293;DHT22;3179;54.350;10.102;2023-02-15T12:58:05;6.80;99.90
6293;DHT22;3179;54.350;10.102;2023-02-15T13:00:33;6.80;99.90
6293;DHT22;3179;54.350;10.102;2023-02-15T13:03:03;6.80;99.90
6293;DHT22;3179;54.350;10.102;2023-02-15T13:05:36;6.80;99.90
6293;DHT22;3179;54.350;10.102;2023-02-15T13:08:09;6.80;99.90
6293;DHT22;3179;54.350;10.102;2023-02-15T13:10:40;6.80;99.90
6293;DHT22;3179;54.350;10.102;2023-02-15T13:13:10;6.80;99.90
6293;DHT22;3179;54.350;10.102;2023-02-15T13:15:40;6.80;99.90
6293;DHT22;3179;54.350;10.102;2023-02-15T13:18:14;6.90;99.90
6293;DHT22;3179;54.350;10.102;2023-02-15T13:20:43;6.90;99.90
6293;DHT22;3179;54.350;10.102;2023-02-15T13:23:22;6.90;99.90
6293;DHT22;3179;54.350;10.102;2023-02-15T13:25:51;6.90;99.90
6293;DHT22;3179;54.350;10.102;2023-02-15T13:28:21;6.90;99.90
6293;DHT22;3179;54.350;10.102;2023-02-15T13:30:49;6.90;99.90
6293;DHT22;3179;54.350;10.102;2023-02-15T13:33:24;6.90;99.90
6293;DHT22;3179;54.350;10.102;2023-02-15T13:36:01;6.90;99.90
6293;DHT22;3179;54.350;10.102;2023-02-15T13:38:56;6.90;99.90
6293;DHT22;3179;54.350;10.102;2023-02-15T13:41:30;6.90;99.90
6293;DHT22;3179;54.350;10.102;2023-02-15T13:44:06;6.90;99.90
6293;DHT22;3179;54.350;10.102;2023-02-15T13:46:48;6.90;99.90
6293;DHT22;3179;54.350;10.102;2023-02-15T13:49:30;6.90;99.90
6293;DHT22;3179;54.350;10.102;2023-02-15T13:52:04;7.00;99.90
6293;DHT22;3179;54.350;10.102;2023-02-15T13:54:54;6.90;99.90
6293;DHT22;3179;54.350;10.102;2023-02-15T13:57:46;7.00;99.90
6293;DHT22;3179;54.350;10.102;2023-02-15T14:00:22;7.00;99.90
6293;DHT22;3179;54.350;10.102;2023-02-15T14:03:12;7.00;99.90
6293;DHT22;3179;54.350;10.102;2023-02-15T14:06:10;7.00;99.90
6293;DHT22;3179;54.350;10.102;2023-02-15T14:08:52;7.00;99.90
6293;DHT22;3179;54.350;10.102;2023-02-15T14:11:26;6.90;99.90
6293;DHT22;3179;54.350;10.102;2023-02-15T14:16:53;7.00;99.90
6293;DHT22;3179;54.350;10.102;2023-02-15T14:19:25;7.00;99.90
6293;DHT22;3179;54.350;10.102;2023-02-15T14:21:59;7.00;99.90
6293;DHT22;3179;54.350;10.102;2023-02-15T14:24:33;7.00;99.90
6293;DHT22;3179;54.350;10.102;2023-02-15T14:27:11;7.00;99.90
6293;DHT22;3179;54.350;10.102;2023-02-15T14:29:49;7.00;99.90
6293;DHT22;3179;54.350;10.102;2023-02-15T14:32:23;7.00;99.90
6293;DHT22;3179;54.350;10.102;2023-02-15T14:34:54;7.00;99.90
6293;DHT22;3179;54.350;10.102;2023-02-15T14:37:31;7.00;99.90
6293;DHT22;3179;54.350;10.102;2023-02-15T14:40:05;7.00;99.90
6293;DHT22;3179;54.350;10.102;2023-02-15T14:42:55;7.00;99.90
6293;DHT22;3179;54.350;10.102;2023-02-15T14:45:28;7.00;99.90
6293;DHT22;3179;54.350;10.102;2023-02-15T14:48:04;7.00;99.90
6293;DHT22;3179;54.350;10.102;2023-02-15T14:50:39;7.00;99.90
6293;DHT22;3179;54.350;10.102;2023-02-15T14:53:35;7.00;99.90
6293;DHT22;3179;54.350;10.102;2023-02-15T14:56:23;7.00;99.90
6293;DHT22;3179;54.350;10.102;2023-02-15T14:59:14;7.00;99.90
6293;DHT22;3179;54.350;10.102;2023-02-15T15:01:42;7.00;99.90
6293;DHT22;3179;54.350;10.102;2023-02-15T15:04:25;7.00;99.90
6293;DHT22;3179;54.350;10.102;2023-02-15T15:07:00;7.00;99.90
6293;DHT22;3179;54.350;10.102;2023-02-15T15:09:30;7.00;99.90
6293;DHT22;3179;54.350;10.102;2023-02-15T15:12:14;7.00;99.90
6293;DHT22;3179;54.350;10.102;2023-02-15T15:14:42;7.00;99.90
6293;DHT22;3179;54.350;10.102;2023-02-15T15:20:12;7.00;99.90
6293;DHT22;3179;54.350;10.102;2023-02-15T15:22:40;7.00;99.90
6293;DHT22;3179;54.350;10.102;2023-02-15T15:25:44;7.00;99.90
6293;DHT22;3179;54.350;10.102;2023-02-15T15:29:01;7.00;99.90
6293;DHT22;3179;54.350;10.102;2023-02-15T15:31:43;7.00;99.90
6293;DHT22;3179;54.350;10.102;2023-02-15T15:34:25;7.00;99.90
6293;DHT22;3179;54.350;10.102;2023-02-15T15:37:36;6.90;99.90
6293;DHT22;3179;54.350;10.102;2023-02-15T15:43:41;6.90;99.90
6293;DHT22;3179;54.350;10.102;2023-02-15T15:46:46;6.90;99.90
6293;DHT22;3179;54.350;10.102;2023-02-15T15:49:19;6.90;99.90
6293;DHT22;3179;54.350;10.102;2023-02-15T15:51:47;6.90;99.90
6293;DHT22;3179;54.350;10.102;2023-02-15T15:54:17;6.90;99.90
6293;DHT22;3179;54.350;10.102;2023-02-15T15:56:47;6.90;99.90
6293;DHT22;3179;54.350;10.102;2023-02-15T15:59:19;6.90;99.90
6293;DHT22;3179;54.350;10.102;2023-02-15T16:01:48;6.90;99.90
6293;DHT22;3179;54.350;10.102;2023-02-15T16:04:23;6.90;99.90
6293;DHT22;3179;54.350;10.102;2023-02-15T16:06:51;6.90;99.90
6293;DHT22;3179;54.350;10.102;2023-02-15T16:09:19;6.90;99.90
6293;DHT22;3179;54.350;10.102;2023-02-15T16:11:48;6.90;99.90
6293;DHT22;3179;54.350;10.102;2023-02-15T16:14:23;6.90;99.90
6293;DHT22;3179;54.350;10.102;2023-02-15T16:16:53;6.90;99.90
6293;DHT22;3179;54.350;10.102;2023-02-15T16:19:24;6.90;99.90
6293;DHT22;3179;54.350;10.102;2023-02-15T16:21:53;6.90;99.90
6293;DHT22;3179;54.350;10.102;2023-02-15T16:27:34;6.90;99.90
6293;DHT22;3179;54.350;10.102;2023-02-15T16:30:20;6.90;99.90
6293;DHT22;3179;54.350;10.102;2023-02-15T16:32:48;6.90;99.90
6293;DHT22;3179;54.350;10.102;2023-02-15T16:35:17;6.90;99.90
6293;DHT22;3179;54.350;10.102;2023-02-15T16:37:44;6.90;99.90
6293;DHT22;3179;54.350;10.102;2023-02-15T16:40:27;6.90;99.90
6293;DHT22;3179;54.350;10.102;2023-02-15T16:42:57;6.90;99.90
6293;DHT22;3179;54.350;10.102;2023-02-15T16:45:29;6.80;99.90
6293;DHT22;3179;54.350;10.102;2023-02-15T16:47:59;6.90;99.90